Estación Meteorológica Peña el Pijo (Robertgarden) [ 04/22/18 23:40:24 CEST ]

Fecha Hora Presion(HPa) Temp (°C) Humedad % Rocio (°C) Viento ( m/s) Direccion Lluvia 1Hora(mm) Lluvia 24H(mm) LLuvia Total(mm)
2018-Feb-14 01:01:43 1009.600 2.9 68 -2.4       0.51 82.36
2018-Feb-14 02:02:10 1009.500 2.9 69 -2.2       0.51 82.36
2018-Feb-14 03:08:05 1008.800 3.1 69 -2.0       0.51 82.36
2018-Feb-14 04:01:41 1008.100 2.5 70 -2.4       0.51 82.36
2018-Feb-14 05:01:43 1008.100 1.3 73 -3.1       0.51 82.36
2018-Feb-14 06:01:35 1007.800 0.3 74 -3.8       0.51 82.36
2018-Feb-14 07:01:49 1008.400 2.4 75 -1.6       0.51 82.36
2018-Feb-14 08:01:47 1008.600 3.3 75 -0.7       0.51 82.36
2018-Feb-14 09:01:31 1008.800 3.9 76 0.0       0.51 82.36
2018-Feb-14 10:01:56 1009.600 5.2 75 1.1 2.1 NNW     82.36
2018-Feb-14 11:01:43 1009.500 6.5 69 1.2         82.36
2018-Feb-14 12:02:02 1009.900 10.8 55 2.1 3.0 N     82.36
2018-Feb-14 13:01:51 1009.300 11.3 48 0.7 2.1 NNW     82.36
2018-Feb-14 14:01:36 1009.100 12.2 49 1.8         82.36
2018-Feb-14 15:01:44 1009.100 12.1 48 1.4         82.36
2018-Feb-14 16:01:33 1009.000 12.1 48 1.4         82.36
2018-Feb-14 17:01:54 1009.600 10.5 53 1.3         82.36
2018-Feb-14 18:01:16 1010.100 8.9 58 0.8         82.36
2018-Feb-14 19:01:22 1010.700 7.3 64 0.9         82.36
2018-Feb-14 20:01:46 1011.100 6.3 67 0.6         82.36
2018-Feb-14 21:01:32 1011.400 5.9 71 1.1         82.36
2018-Feb-14 22:01:46 1011.900 5.1 73 0.6         82.36
2018-Feb-14 23:02:07 1012.200 5.3 75 1.2         82.36

Temperatura Máxima:12°    Temperatura Mínima:
Presión Máxima:1012.200 Hpa    Presión Mínima:1007.800 Hpa


Volver